Time;durP1;ratioP1;P1;durP2;ratioP2;P2;SDS_P1;SDS_P2;PMS_P1;PMS_P2;Temp;Humidity;BMP_temperature;BMP_pressure;BME280_temperature;BME280_humidity;BME280_pressure;Samples;Min_cycle;Max_cycle;Signal;HPM_P1;HPM_P2
2022/12/20 00:00:31;;;;;;;26.87;13.33;;;1.90;99.90;;;;;;4112708;28;20531;-67
2022/12/20 00:02:31;;;;;;;25.53;12.60;;;1.90;99.90;;;;;;4129976;28;20195;-67
2022/12/20 00:04:32;;;;;;;28.77;13.33;;;1.90;99.90;;;;;;4130022;28;20262;-67
2022/12/20 00:06:35;;;;;;;30.20;13.00;;;1.80;99.90;;;;;;4129307;28;20664;-67
2022/12/20 00:08:36;;;;;;;30.73;12.93;;;1.90;99.90;;;;;;4112520;28;20226;-66
2022/12/20 00:10:41;;;;;;;34.90;14.03;;;1.90;99.90;;;;;;4112712;28;20425;-68
2022/12/20 00:12:41;;;;;;;35.93;14.40;;;1.90;99.90;;;;;;4112758;28;20432;-66
2022/12/20 00:14:42;;;;;;;30.03;13.43;;;1.90;99.90;;;;;;4112668;28;20419;-65
2022/12/20 00:16:43;;;;;;;29.47;14.17;;;2.10;99.90;;;;;;4129211;28;20185;-67
2022/12/20 00:18:44;;;;;;;35.63;14.97;;;2.10;99.90;;;;;;4112388;28;20228;-67
2022/12/20 00:20:45;;;;;;;32.17;15.80;;;1.90;99.90;;;;;;4112460;28;20711;-67
2022/12/20 00:22:46;;;;;;;27.40;13.53;;;1.90;99.90;;;;;;4129461;28;20564;-67
2022/12/20 00:24:46;;;;;;;28.83;14.87;;;2.00;99.90;;;;;;4129641;28;20187;-67
2022/12/20 00:26:47;;;;;;;35.67;15.97;;;2.20;99.90;;;;;;4111661;28;20215;-67
2022/12/20 00:28:48;;;;;;;33.13;14.70;;;2.30;99.90;;;;;;4111997;28;20203;-68
2022/12/20 00:30:53;;;;;;;36.90;15.93;;;2.20;99.90;;;;;;4129639;28;20274;-66
2022/12/20 00:32:54;;;;;;;32.93;16.07;;;2.30;99.90;;;;;;4112206;28;20188;-67
2022/12/20 00:34:55;;;;;;;31.53;15.57;;;2.30;99.90;;;;;;4112062;28;20833;-68
2022/12/20 00:36:55;;;;;;;23.07;12.87;;;2.30;99.90;;;;;;4111462;28;20184;-67
2022/12/20 00:38:59;;;;;;;33.10;14.77;;;2.30;99.90;;;;;;4129528;28;20188;-68
2022/12/20 00:41:03;;;;;;;26.40;13.00;;;2.30;99.90;;;;;;4112087;28;20265;-67
2022/12/20 00:43:04;;;;;;;27.37;14.30;;;2.40;99.90;;;;;;4129907;28;20528;-68
2022/12/20 00:45:06;;;;;;;33.93;15.53;;;2.20;99.90;;;;;;4112059;28;20494;-67
2022/12/20 00:47:06;;;;;;;37.87;16.30;;;2.20;99.90;;;;;;4111376;28;20443;-67
2022/12/20 00:49:07;;;;;;;33.03;16.30;;;2.30;99.90;;;;;;4111857;28;20470;-67
2022/12/20 00:51:15;;;;;;;39.00;17.60;;;2.30;99.90;;;;;;4127633;28;20191;-67
2022/12/20 00:53:16;;;;;;;30.43;14.33;;;2.20;99.90;;;;;;4096202;29;20238;-67
2022/12/20 00:55:16;;;;;;;32.70;16.43;;;2.20;99.90;;;;;;4096160;29;20431;-68
2022/12/20 00:57:17;;;;;;;37.03;15.50;;;2.30;99.90;;;;;;4096989;28;20237;-67
2022/12/20 00:59:19;;;;;;;33.77;16.27;;;2.10;99.90;;;;;;4099166;29;20232;-66
2022/12/20 01:01:25;;;;;;;26.87;14.30;;;2.20;99.90;;;;;;4099178;29;20182;-67
2022/12/20 01:03:26;;;;;;;32.17;14.93;;;2.30;99.90;;;;;;4099058;29;20457;-68
2022/12/20 01:05:27;;;;;;;31.60;15.00;;;2.30;99.90;;;;;;4099087;29;20430;-68
2022/12/20 01:07:27;;;;;;;25.20;12.50;;;2.30;99.90;;;;;;4098265;29;20968;-68
2022/12/20 01:09:28;;;;;;;31.93;13.67;;;2.40;99.90;;;;;;4099025;29;20173;-67
2022/12/20 01:11:32;;;;;;;38.13;16.03;;;2.40;99.90;;;;;;4098831;29;20177;-67
2022/12/20 01:13:35;;;;;;;33.33;14.33;;;2.30;99.90;;;;;;4098668;29;20187;-68
2022/12/20 01:15:36;;;;;;;33.83;14.67;;;2.30;99.90;;;;;;4099136;28;20434;-67
2022/12/20 01:17:37;;;;;;;28.23;13.83;;;2.30;99.90;;;;;;4115321;28;20557;-67
2022/12/20 01:19:39;;;;;;;27.73;14.23;;;2.30;99.90;;;;;;4115973;28;20188;-68
2022/12/20 01:21:43;;;;;;;30.53;15.33;;;2.30;99.90;;;;;;4116003;28;20182;-68
2022/12/20 01:23:44;;;;;;;32.37;15.77;;;2.30;99.90;;;;;;4115815;28;20474;-68
2022/12/20 01:25:46;;;;;;;33.23;15.97;;;2.30;99.90;;;;;;4098631;29;20436;-67
2022/12/20 01:27:46;;;;;;;33.70;15.40;;;2.40;99.90;;;;;;4115626;28;20471;-67
2022/12/20 01:29:47;;;;;;;25.97;13.67;;;2.40;99.90;;;;;;4098586;29;20428;-67
2022/12/20 01:31:48;;;;;;;31.77;15.37;;;2.50;99.90;;;;;;4098678;29;20878;-67
2022/12/20 01:33:51;;;;;;;31.67;15.07;;;2.50;99.90;;;;;;4115845;28;20666;-67
2022/12/20 01:36:04;;;;;;;28.70;14.93;;;2.50;99.90;;;;;;4098555;29;20181;-67
2022/12/20 01:38:05;;;;;;;25.23;13.73;;;2.50;99.90;;;;;;4098109;29;20505;-67
2022/12/20 01:40:09;;;;;;;27.20;11.57;;;2.60;99.90;;;;;;4114631;28;20943;-68
2022/12/20 01:42:14;;;;;;;22.27;11.00;;;2.60;99.90;;;;;;4115920;28;20179;-67
2022/12/20 01:44:17;;;;;;;19.43;9.83;;;2.60;99.90;;;;;;4098427;29;21189;-68
2022/12/20 01:46:21;;;;;;;19.70;9.97;;;2.60;99.90;;;;;;4098327;29;21243;-67
2022/12/20 01:48:25;;;;;;;20.30;10.60;;;2.40;99.90;;;;;;4098302;29;20481;-68
2022/12/20 01:50:25;;;;;;;22.93;12.10;;;2.40;99.90;;;;;;4082529;29;20452;-68
2022/12/20 01:52:39;;;;;;;23.77;11.07;;;2.50;99.90;;;;;;4115717;28;20435;-67
2022/12/20 01:54:48;;;;;;;29.10;12.47;;;2.60;99.90;;;;;;4098639;29;20173;-68
2022/12/20 01:56:57;;;;;;;26.43;14.57;;;2.50;99.90;;;;;;4097630;28;20454;-68
2022/12/20 01:58:59;;;;;;;26.80;14.53;;;2.50;99.90;;;;;;4115629;28;20450;-68
2022/12/20 02:01:00;;;;;;;32.13;14.33;;;2.50;99.90;;;;;;4082484;29;20521;-68
2022/12/20 02:03:08;;;;;;;26.33;13.97;;;2.50;99.90;;;;;;4115628;28;21134;-67
2022/12/20 02:05:10;;;;;;;31.60;13.23;;;2.40;99.90;;;;;;4115729;28;20166;-67
2022/12/20 02:07:18;;;;;;;24.20;12.37;;;2.50;99.90;;;;;;4114835;28;20452;-67
2022/12/20 02:09:18;;;;;;;23.47;11.13;;;2.50;99.90;;;;;;4098149;29;20873;-67
2022/12/20 02:11:40;;;;;;;19.20;10.57;;;2.50;99.90;;;;;;4098002;29;20431;-67
2022/12/20 02:14:09;;;;;;;22.43;11.03;;;2.60;99.90;;;;;;4115315;28;20195;-67
2022/12/20 02:16:14;;;;;;;26.67;13.23;;;2.50;99.90;;;;;;4097828;29;20959;-67
2022/12/20 02:18:21;;;;;;;28.33;13.30;;;2.40;99.90;;;;;;4113416;28;20577;-67
2022/12/20 02:21:07;;;;;;;20.00;10.80;;;2.40;99.90;;;;;;4098033;29;20431;-67
2022/12/20 02:23:35;;;;;;;24.97;11.27;;;2.40;99.90;;;;;;4114923;28;21240;-68
2022/12/20 02:26:03;;;;;;;26.23;12.53;;;2.40;99.90;;;;;;4115091;28;20488;-67
2022/12/20 02:28:38;;;;;;;26.33;11.10;;;2.50;99.90;;;;;;4096929;29;20452;-67
2022/12/20 02:30:41;;;;;;;19.30;9.83;;;2.40;99.90;;;;;;4115012;28;20443;-67
2022/12/20 02:33:03;;;;;;;22.57;10.87;;;2.40;99.90;;;;;;4097699;29;20460;-67
2022/12/20 02:35:07;;;;;;;17.47;9.47;;;2.50;99.90;;;;;;4097503;29;20466;-67
2022/12/20 02:37:09;;;;;;;31.00;12.97;;;2.50;99.90;;;;;;4097130;29;20565;-68
2022/12/20 02:39:15;;;;;;;31.53;13.97;;;2.60;99.90;;;;;;4114988;28;20430;-66
2022/12/20 02:41:22;;;;;;;21.27;11.20;;;2.60;99.90;;;;;;4098316;28;20410;-68
2022/12/20 02:45:43;;;;;;;17.03;9.27;;;2.50;99.90;;;;;;4100380;28;20444;-67
2022/12/20 02:47:59;;;;;;;20.30;11.00;;;2.60;99.90;;;;;;4116586;28;20449;-68
2022/12/20 02:50:02;;;;;;;21.63;11.07;;;2.50;99.90;;;;;;4097391;29;20177;-67
2022/12/20 02:52:05;;;;;;;22.00;10.80;;;2.30;99.90;;;;;;4097582;29;20417;-67
2022/12/20 02:54:06;;;;;;;20.63;11.00;;;2.30;99.90;;;;;;4081742;29;20952;-67
2022/12/20 02:56:13;;;;;;;24.57;12.03;;;2.50;99.90;;;;;;4097373;29;20433;-67
2022/12/20 02:58:40;;;;;;;29.00;12.47;;;2.40;99.90;;;;;;4124205;28;20216;-67
2022/12/20 03:00:44;;;;;;;20.40;10.03;;;2.50;99.90;;;;;;4113131;28;20443;-67
2022/12/20 03:05:07;;;;;;;20.60;9.70;;;2.60;99.90;;;;;;4115865;28;20436;-67
2022/12/20 03:07:12;;;;;;;19.70;10.80;;;2.50;99.90;;;;;;4129936;28;20924;-67
2022/12/20 03:09:13;;;;;;;21.27;10.50;;;2.60;99.90;;;;;;4130563;28;20215;-67
2022/12/20 03:11:13;;;;;;;21.50;11.37;;;2.60;99.90;;;;;;4130495;28;20432;-66
2022/12/20 03:13:14;;;;;;;28.30;12.63;;;2.70;99.90;;;;;;4130356;28;20181;-67
2022/12/20 03:15:15;;;;;;;33.17;12.63;;;2.70;99.90;;;;;;4113103;28;20299;-67
2022/12/20 03:17:16;;;;;;;29.00;13.40;;;2.70;99.90;;;;;;4129929;28;20205;-68
2022/12/20 03:19:16;;;;;;;21.37;10.67;;;2.60;99.90;;;;;;4123694;28;20202;-68
2022/12/20 03:21:17;;;;;;;25.17;12.70;;;2.40;99.90;;;;;;4129812;28;20659;-67
2022/12/20 03:23:18;;;;;;;22.77;12.20;;;2.40;99.90;;;;;;4130098;28;20252;-67
2022/12/20 03:25:18;;;;;;;26.07;13.07;;;2.40;99.90;;;;;;4113193;28;20228;-67
2022/12/20 03:27:19;;;;;;;20.73;10.53;;;2.30;99.90;;;;;;4112258;28;20208;-68
2022/12/20 03:29:20;;;;;;;27.90;12.03;;;2.30;99.90;;;;;;4112587;28;20212;-67
2022/12/20 03:31:20;;;;;;;15.23;8.20;;;2.30;99.90;;;;;;4130309;28;20177;-67
2022/12/20 03:33:21;;;;;;;13.43;6.87;;;2.30;99.90;;;;;;4113000;28;20732;-67
2022/12/20 03:35:22;;;;;;;12.13;6.77;;;2.40;99.90;;;;;;4127345;28;20189;-67
2022/12/20 03:37:23;;;;;;;9.33;5.63;;;2.50;99.90;;;;;;4129277;28;20721;-68
2022/12/20 03:39:24;;;;;;;10.27;5.80;;;2.60;99.90;;;;;;4128961;28;20186;-68
2022/12/20 03:41:26;;;;;;;13.93;7.83;;;2.70;99.90;;;;;;4129869;28;20814;-67
2022/12/20 03:43:27;;;;;;;13.23;7.20;;;2.70;99.90;;;;;;4112545;28;20209;-67
2022/12/20 03:45:27;;;;;;;16.43;8.40;;;2.70;99.90;;;;;;4112344;28;20535;-68
2022/12/20 03:47:28;;;;;;;17.60;8.93;;;2.90;99.90;;;;;;4129215;28;20197;-67
2022/12/20 03:49:29;;;;;;;21.90;10.47;;;2.90;99.90;;;;;;4130022;28;20300;-67
2022/12/20 03:51:29;;;;;;;18.43;9.23;;;2.80;99.90;;;;;;4129862;28;20185;-67
2022/12/20 03:53:30;;;;;;;17.23;9.23;;;2.70;99.90;;;;;;4128561;28;20193;-68
2022/12/20 03:55:31;;;;;;;26.50;11.43;;;2.80;99.90;;;;;;4129926;28;20194;-67
2022/12/20 03:57:32;;;;;;;23.83;10.90;;;2.90;99.90;;;;;;4111796;28;20454;-67
2022/12/20 03:59:33;;;;;;;22.53;11.73;;;2.90;99.90;;;;;;4129926;28;20542;-68
2022/12/20 04:01:35;;;;;;;27.37;12.57;;;3.00;99.90;;;;;;4129849;28;20230;-67
2022/12/20 04:03:36;;;;;;;22.77;12.47;;;3.10;99.90;;;;;;4112439;28;21348;-67
2022/12/20 04:05:36;;;;;;;26.00;12.33;;;3.30;99.90;;;;;;4129843;28;20431;-67
2022/12/20 04:07:37;;;;;;;22.73;12.20;;;3.30;99.90;;;;;;4111462;28;20305;-67
2022/12/20 04:09:38;;;;;;;23.17;11.60;;;3.30;99.90;;;;;;4129443;28;20183;-66
2022/12/20 04:11:39;;;;;;;26.67;12.10;;;3.30;99.90;;;;;;4129833;28;20240;-66
2022/12/20 04:13:39;;;;;;;26.27;11.80;;;3.10;99.90;;;;;;4129583;28;20189;-66
2022/12/20 04:15:40;;;;;;;15.40;7.23;;;3.00;99.90;;;;;;4129843;28;20195;-66
2022/12/20 04:17:41;;;;;;;15.47;8.33;;;2.80;99.90;;;;;;4129388;28;20371;-66
2022/12/20 04:19:41;;;;;;;16.20;8.37;;;2.90;99.90;;;;;;4112635;28;20182;-66
2022/12/20 04:21:42;;;;;;;16.57;8.37;;;3.00;99.90;;;;;;4112248;28;20228;-66
2022/12/20 04:23:43;;;;;;;13.80;7.57;;;3.10;99.90;;;;;;4129451;28;20212;-67
2022/12/20 04:25:43;;;;;;;20.23;10.57;;;3.00;99.90;;;;;;4129775;28;20187;-67
2022/12/20 04:27:45;;;;;;;18.17;8.63;;;3.00;99.90;;;;;;4128732;28;20318;-67
2022/12/20 04:29:45;;;;;;;18.50;9.40;;;2.90;99.90;;;;;;4112184;28;20189;-67
2022/12/20 04:31:46;;;;;;;18.20;9.07;;;3.00;99.90;;;;;;4114032;28;21011;-67
2022/12/20 04:33:47;;;;;;;14.93;9.13;;;3.00;99.90;;;;;;4132430;28;20528;-67
2022/12/20 04:35:48;;;;;;;18.20;9.80;;;3.00;99.90;;;;;;4115281;28;20201;-66
2022/12/20 04:37:49;;;;;;;15.93;8.87;;;3.00;99.90;;;;;;4132378;28;20449;-67
2022/12/20 04:39:49;;;;;;;16.97;8.47;;;2.90;99.90;;;;;;4115859;28;20218;-68
2022/12/20 04:41:50;;;;;;;16.57;8.53;;;2.90;99.90;;;;;;4127234;28;20187;-67
2022/12/20 04:43:54;;;;;;;13.77;8.00;;;2.80;99.90;;;;;;4116903;28;20202;-68
2022/12/20 04:45:55;;;;;;;13.17;7.10;;;2.80;99.90;;;;;;4099544;29;20322;-67
2022/12/20 04:47:56;;;;;;;13.60;7.70;;;2.90;99.90;;;;;;4098956;29;20442;-66
2022/12/20 04:49:56;;;;;;;25.03;13.10;;;3.00;99.90;;;;;;4099757;29;20461;-67
2022/12/20 04:53:46;;;;;;;20.93;10.20;;;3.00;99.90;;;;;;4121129;28;20182;-67
2022/12/20 04:54:18;;;;;;;16.20;9.53;;;2.90;99.90;;;;;;4117689;28;20272;-67
2022/12/20 04:56:22;;;;;;;15.33;8.40;;;2.80;99.90;;;;;;4132172;28;20412;-65
2022/12/20 04:58:23;;;;;;;14.60;8.17;;;2.80;99.90;;;;;;4114786;28;20227;-67
2022/12/20 05:00:24;;;;;;;15.27;8.67;;;2.80;99.90;;;;;;4115166;28;21210;-66
2022/12/20 05:02:24;;;;;;;13.77;8.47;;;2.90;99.90;;;;;;4114654;28;20283;-66
2022/12/20 05:04:25;;;;;;;19.73;9.43;;;2.90;99.90;;;;;;4114727;28;20208;-67
2022/12/20 05:06:26;;;;;;;16.13;9.13;;;3.00;99.90;;;;;;4131472;28;20264;-67
2022/12/20 05:08:26;;;;;;;19.83;9.80;;;3.10;99.90;;;;;;4131993;28;20204;-67
2022/12/20 05:10:27;;;;;;;17.50;9.27;;;3.20;99.90;;;;;;4132133;28;20177;-66
2022/12/20 05:12:27;;;;;;;18.90;9.73;;;3.20;99.90;;;;;;4114680;28;20290;-67
2022/12/20 05:14:28;;;;;;;19.30;10.07;;;3.20;99.90;;;;;;4114710;28;20204;-67
2022/12/20 05:16:29;;;;;;;18.90;12.13;;;3.20;99.90;;;;;;4130256;28;20185;-66
2022/12/20 05:18:30;;;;;;;25.67;11.43;;;3.20;99.90;;;;;;4115243;28;20209;-67
2022/12/20 05:20:31;;;;;;;23.47;11.63;;;3.20;99.90;;;;;;4114872;28;20196;-67
2022/12/20 05:27:10;;;;;;;23.63;11.87;;;3.30;99.90;;;;;;4131326;28;20400;-67
2022/12/20 05:29:11;;;;;;;18.93;10.57;;;3.30;99.90;;;;;;4114913;28;20908;-66
2022/12/20 05:31:12;;;;;;;23.77;11.73;;;3.30;99.90;;;;;;4130654;28;20609;-66
2022/12/20 05:33:12;;;;;;;21.50;10.23;;;3.10;99.90;;;;;;4114786;28;20252;-66
2022/12/20 05:35:13;;;;;;;30.70;14.10;;;3.20;99.90;;;;;;4121124;28;20187;-67
2022/12/20 05:37:14;;;;;;;22.53;10.57;;;3.30;99.90;;;;;;4118977;28;20210;-67
2022/12/20 05:39:14;;;;;;;21.57;10.63;;;3.30;99.90;;;;;;4114638;28;20577;-67
2022/12/20 05:41:15;;;;;;;20.63;10.13;;;3.30;99.90;;;;;;4130509;28;20286;-67
2022/12/20 05:43:17;;;;;;;21.00;10.57;;;3.40;99.90;;;;;;4097690;28;20696;-66
2022/12/20 05:45:18;;;;;;;18.03;9.30;;;3.40;99.90;;;;;;4114474;28;20236;-67
2022/12/20 05:47:18;;;;;;;14.17;8.93;;;3.40;99.90;;;;;;4131114;28;20824;-67
2022/12/20 05:49:19;;;;;;;16.10;9.03;;;3.50;99.90;;;;;;4131637;28;20216;-68
2022/12/20 05:51:20;;;;;;;31.33;12.87;;;3.50;99.90;;;;;;4131589;28;20364;-67
2022/12/20 05:53:21;;;;;;;25.53;11.67;;;3.40;99.90;;;;;;4118082;28;20187;-67
2022/12/20 05:55:21;;;;;;;35.90;14.00;;;3.30;99.90;;;;;;4136585;28;20214;-68
2022/12/20 05:57:22;;;;;;;30.40;12.63;;;3.30;99.90;;;;;;4118460;28;20208;-69
2022/12/20 05:59:23;;;;;;;39.77;15.67;;;3.20;99.90;;;;;;4137863;28;20184;-68
2022/12/20 06:01:23;;;;;;;47.83;18.23;;;3.10;99.90;;;;;;4137439;28;20180;-67
2022/12/20 06:03:24;;;;;;;53.50;20.43;;;3.00;99.90;;;;;;4119738;28;20229;-68
2022/12/20 06:05:25;;;;;;;52.73;17.40;;;3.10;99.90;;;;;;4137687;28;20566;-68
2022/12/20 06:07:27;;;;;;;57.97;19.30;;;3.10;99.90;;;;;;4137219;28;20250;-68
2022/12/20 06:09:29;;;;;;;65.73;21.10;;;3.10;99.90;;;;;;4137544;28;20315;-67
2022/12/20 06:11:29;;;;;;;41.60;15.93;;;3.10;99.90;;;;;;4119376;28;20972;-68
2022/12/20 06:13:30;;;;;;;50.73;17.17;;;3.00;99.90;;;;;;4119161;28;20437;-68
2022/12/20 06:15:31;;;;;;;39.20;14.87;;;3.00;99.90;;;;;;4137155;28;20188;-68
2022/12/20 06:17:32;;;;;;;60.10;20.83;;;3.00;99.90;;;;;;4136008;28;20240;-67
2022/12/20 06:19:32;;;;;;;53.53;17.10;;;2.80;99.90;;;;;;4136903;28;20199;-67
2022/12/20 06:21:33;;;;;;;41.37;16.40;;;2.80;99.90;;;;;;4118563;28;20207;-68
2022/12/20 06:23:34;;;;;;;39.23;14.97;;;2.70;99.90;;;;;;4136814;28;20215;-68
2022/12/20 06:25:37;;;;;;;42.37;15.93;;;2.70;99.90;;;;;;4118897;28;20249;-67
2022/12/20 06:27:37;;;;;;;36.93;14.53;;;2.70;99.90;;;;;;4136744;28;20501;-67
2022/12/20 06:29:38;;;;;;;43.03;17.03;;;2.70;99.90;;;;;;4119997;28;20421;-68
2022/12/20 06:31:39;;;;;;;44.93;14.83;;;2.70;99.90;;;;;;4137690;28;20280;-68
2022/12/20 06:33:40;;;;;;;42.23;15.70;;;2.60;99.90;;;;;;4119358;28;20242;-68
2022/12/20 06:35:41;;;;;;;32.13;14.30;;;2.60;99.90;;;;;;4138378;28;20428;-68
2022/12/20 06:37:42;;;;;;;34.27;14.77;;;2.60;99.90;;;;;;4136680;28;20214;-70
2022/12/20 06:39:42;;;;;;;32.40;13.07;;;2.60;99.90;;;;;;4135856;28;20190;-67
2022/12/20 06:41:43;;;;;;;35.17;16.27;;;2.50;99.90;;;;;;4114549;28;20443;-68
2022/12/20 06:43:44;;;;;;;31.83;13.03;;;2.60;99.90;;;;;;4133811;28;20216;-67
2022/12/20 06:45:45;;;;;;;26.00;13.10;;;2.60;99.90;;;;;;4139431;28;20187;-68
2022/12/20 06:47:45;;;;;;;24.70;11.07;;;2.60;99.90;;;;;;4137788;28;20208;-67
2022/12/20 06:49:46;;;;;;;38.00;14.87;;;2.70;99.90;;;;;;4111889;28;20629;-68
2022/12/20 06:51:47;;;;;;;52.70;18.83;;;2.70;99.90;;;;;;4133304;28;20197;-68
2022/12/20 06:53:47;;;;;;;48.93;18.60;;;2.70;99.90;;;;;;4138358;28;20185;-67
2022/12/20 06:55:49;;;;;;;50.27;20.70;;;2.70;99.90;;;;;;4137582;28;20189;-68
2022/12/20 06:57:50;;;;;;;42.23;19.33;;;2.70;99.90;;;;;;4137552;28;20209;-68
2022/12/20 06:59:50;;;;;;;40.87;18.03;;;2.70;99.90;;;;;;4120192;28;20424;-68
2022/12/20 07:01:51;;;;;;;47.77;20.83;;;2.70;99.90;;;;;;4138076;28;20184;-68
2022/12/20 07:03:51;;;;;;;54.73;21.87;;;2.70;99.90;;;;;;4137476;28;20218;-68
2022/12/20 07:05:53;;;;;;;51.07;21.40;;;2.80;99.90;;;;;;4136939;28;20566;-67
2022/12/20 07:07:54;;;;;;;43.80;20.17;;;2.80;99.90;;;;;;4134690;28;20289;-67
2022/12/20 07:09:54;;;;;;;47.07;19.80;;;2.70;99.90;;;;;;4119066;28;20493;-68
2022/12/20 07:11:56;;;;;;;41.10;17.83;;;2.80;99.90;;;;;;4119813;28;20182;-68
2022/12/20 07:13:57;;;;;;;41.37;18.83;;;2.80;99.90;;;;;;4119368;28;20221;-68
2022/12/20 07:16:00;;;;;;;47.00;19.87;;;2.70;99.90;;;;;;4136184;28;20420;-66
2022/12/20 07:18:00;;;;;;;35.40;15.37;;;2.60;99.90;;;;;;4134335;28;20524;-68
2022/12/20 07:20:01;;;;;;;22.13;11.10;;;2.70;99.90;;;;;;4136478;28;20896;-68
2022/12/20 07:22:04;;;;;;;19.10;10.97;;;2.70;99.90;;;;;;4114919;28;20606;-67
2022/12/20 07:24:06;;;;;;;28.00;14.30;;;2.80;99.90;;;;;;4113486;28;20615;-67
2022/12/20 07:26:06;;;;;;;33.23;16.13;;;2.90;99.90;;;;;;4129540;28;20437;-67
2022/12/20 07:28:08;;;;;;;36.80;18.17;;;2.90;99.90;;;;;;4130171;28;20448;-67
2022/12/20 07:30:09;;;;;;;39.97;17.00;;;2.90;99.90;;;;;;4130937;28;20190;-67
2022/12/20 07:32:12;;;;;;;38.03;18.17;;;2.80;99.90;;;;;;4130283;28;20438;-67
2022/12/20 07:34:12;;;;;;;34.07;15.27;;;2.90;99.90;;;;;;4096960;29;20198;-67
2022/12/20 07:36:16;;;;;;;30.60;16.27;;;2.90;99.90;;;;;;4112675;28;20433;-67
2022/12/20 07:38:17;;;;;;;37.30;19.67;;;2.90;99.90;;;;;;4129221;28;20216;-67
2022/12/20 07:40:18;;;;;;;41.93;18.33;;;3.00;99.90;;;;;;4129825;28;20418;-68
2022/12/20 07:42:18;;;;;;;43.10;19.07;;;3.00;99.90;;;;;;4112835;28;20186;-67
2022/12/20 07:44:20;;;;;;;32.87;15.87;;;3.00;99.90;;;;;;4128685;28;20986;-67
2022/12/20 07:46:20;;;;;;;37.53;17.00;;;3.00;99.90;;;;;;4129422;28;20189;-66
2022/12/20 07:48:22;;;;;;;34.93;17.77;;;3.00;99.90;;;;;;4112348;28;20445;-67
2022/12/20 07:50:25;;;;;;;33.30;16.57;;;3.00;99.90;;;;;;4128615;28;20178;-68
2022/12/20 07:52:28;;;;;;;35.07;18.60;;;3.00;99.90;;;;;;4128627;28;20908;-67
2022/12/20 07:54:41;;;;;;;28.20;15.43;;;2.90;99.90;;;;;;4128466;28;20520;-67
2022/12/20 07:56:47;;;;;;;39.00;21.40;;;3.00;99.90;;;;;;4127898;28;20416;-68
2022/12/20 07:58:49;;;;;;;30.10;16.40;;;3.00;99.90;;;;;;4112319;28;20449;-67
2022/12/20 08:00:50;;;;;;;25.70;14.50;;;3.10;99.90;;;;;;4129653;28;20474;-67
2022/12/20 08:03:16;;;;;;;27.37;14.83;;;3.20;99.90;;;;;;4129594;28;20526;-67
2022/12/20 08:05:17;;;;;;;27.27;15.20;;;3.30;99.90;;;;;;4096244;28;20176;-66
2022/12/20 08:07:18;;;;;;;24.77;12.23;;;3.50;99.90;;;;;;4128778;28;20446;-67
2022/12/20 08:09:19;;;;;;;27.43;15.37;;;3.50;99.90;;;;;;4129392;28;20189;-67
2022/12/20 08:11:21;;;;;;;21.13;11.80;;;3.50;99.90;;;;;;4112197;28;20189;-67
2022/12/20 08:13:22;;;;;;;21.57;11.23;;;3.50;99.90;;;;;;4112152;28;20573;-67
2022/12/20 08:15:23;;;;;;;22.73;11.07;;;3.40;99.90;;;;;;4112442;28;20442;-67
2022/12/20 08:17:24;;;;;;;17.20;10.67;;;3.40;99.90;;;;;;4127761;28;20606;-67
2022/12/20 08:19:25;;;;;;;20.37;11.63;;;3.40;99.90;;;;;;4129710;28;20428;-67
2022/12/20 08:21:26;;;;;;;24.77;12.20;;;3.40;99.90;;;;;;4129576;28;20209;-67
2022/12/20 08:23:26;;;;;;;16.63;9.93;;;3.40;99.90;;;;;;4112079;28;20708;-68
2022/12/20 08:25:27;;;;;;;22.73;11.53;;;3.30;99.90;;;;;;4129354;28;20189;-67
2022/12/20 08:27:28;;;;;;;25.67;13.30;;;3.40;99.90;;;;;;4128501;28;20211;-67
2022/12/20 08:29:28;;;;;;;17.03;10.57;;;3.30;99.90;;;;;;4129364;28;20186;-67
2022/12/20 08:31:29;;;;;;;21.30;12.60;;;3.40;99.90;;;;;;4111889;28;20182;-67
2022/12/20 08:33:31;;;;;;;13.20;8.70;;;3.50;99.90;;;;;;4111868;28;20275;-68
2022/12/20 08:35:32;;;;;;;19.27;11.20;;;3.50;99.90;;;;;;4129361;28;20189;-67
2022/12/20 08:37:33;;;;;;;15.03;9.67;;;3.60;99.90;;;;;;4128467;28;20452;-67
2022/12/20 08:39:34;;;;;;;19.03;12.73;;;3.70;99.90;;;;;;4129272;28;20196;-67
2022/12/20 08:41:36;;;;;;;15.43;10.73;;;3.60;99.90;;;;;;4111870;28;20214;-67
2022/12/20 08:43:38;;;;;;;18.57;11.30;;;3.60;99.90;;;;;;4112076;28;20197;-67
2022/12/20 08:45:39;;;;;;;23.37;14.97;;;3.70;99.90;;;;;;4129396;28;20440;-67
2022/12/20 08:47:39;;;;;;;21.20;12.27;;;3.80;99.90;;;;;;4128622;28;20974;-66
2022/12/20 08:49:40;;;;;;;17.17;11.17;;;3.90;99.90;;;;;;4119441;28;20918;-68
2022/12/20 08:51:41;;;;;;;35.37;17.53;;;4.10;99.90;;;;;;4096005;29;20583;-66
2022/12/20 08:53:41;;;;;;;32.30;15.27;;;4.30;99.90;;;;;;4113044;28;20191;-66
2022/12/20 08:55:42;;;;;;;24.53;15.93;;;4.50;99.90;;;;;;4113277;28;20183;-67
2022/12/20 08:57:43;;;;;;;30.00;15.90;;;4.70;99.90;;;;;;4125663;28;20673;-66
2022/12/20 08:59:43;;;;;;;22.23;13.13;;;5.00;99.90;;;;;;4098001;28;20251;-65
2022/12/20 09:01:44;;;;;;;26.67;15.50;;;5.30;99.90;;;;;;4125609;28;20241;-65
2022/12/20 09:03:45;;;;;;;29.77;15.67;;;5.30;98.70;;;;;;4110521;28;20234;-63
2022/12/20 09:05:46;;;;;;;36.97;16.80;;;5.30;99.60;;;;;;4129102;28;20664;-66
2022/12/20 09:07:47;;;;;;;34.27;18.50;;;5.50;99.10;;;;;;4128080;28;20457;-65
2022/12/20 09:09:47;;;;;;;33.73;18.73;;;5.90;98.10;;;;;;4128237;28;20398;-64
2022/12/20 09:11:48;;;;;;;31.30;17.47;;;5.90;96.80;;;;;;4128941;28;20276;-65
2022/12/20 09:13:51;;;;;;;30.27;16.47;;;5.80;97.00;;;;;;4128740;28;20196;-66
2022/12/20 09:15:52;;;;;;;37.50;21.53;;;5.80;97.40;;;;;;4122649;28;20198;-67
2022/12/20 09:17:54;;;;;;;27.20;16.57;;;5.90;97.10;;;;;;4095656;28;20950;-68
2022/12/20 09:19:54;;;;;;;36.60;18.80;;;6.10;96.60;;;;;;4130018;28;20217;-67
2022/12/20 09:21:55;;;;;;;31.17;18.40;;;6.20;95.40;;;;;;4131159;28;20439;-68
2022/12/20 09:23:56;;;;;;;28.53;15.63;;;6.30;96.10;;;;;;4114346;28;20210;-67
2022/12/20 09:26:06;;;;;;;13.73;7.30;;;6.30;95.80;;;;;;4131225;28;20186;-66
2022/12/20 09:28:06;;;;;;;21.70;11.37;;;6.40;97.80;;;;;;4113756;28;20454;-67
2022/12/20 09:30:09;;;;;;;26.07;15.50;;;6.60;96.50;;;;;;4131677;28;20429;-66
2022/12/20 09:32:10;;;;;;;29.57;16.40;;;6.50;95.60;;;;;;4112963;28;20241;-67
2022/12/20 09:34:10;;;;;;;26.10;14.90;;;6.60;95.10;;;;;;4130350;28;20182;-67
2022/12/20 09:36:18;;;;;;;21.73;14.47;;;6.60;95.00;;;;;;4131108;28;20689;-67
2022/12/20 09:38:19;;;;;;;20.80;14.00;;;6.80;94.60;;;;;;4113934;28;20632;-67
2022/12/20 09:40:31;;;;;;;26.00;15.73;;;6.90;94.30;;;;;;4131280;28;20190;-67
2022/12/20 09:42:32;;;;;;;28.67;14.67;;;6.70;94.30;;;;;;4097290;28;20594;-66
2022/12/20 09:44:39;;;;;;;26.37;15.33;;;6.50;95.20;;;;;;4117600;28;20203;-66
2022/12/20 09:46:41;;;;;;;19.67;12.50;;;6.20;96.20;;;;;;4111065;28;20213;-64
2022/12/20 09:48:43;;;;;;;18.47;11.50;;;6.20;96.50;;;;;;4129516;28;20937;-65
2022/12/20 09:51:01;;;;;;;23.27;13.70;;;6.10;96.60;;;;;;4129689;28;20986;-67
2022/12/20 09:53:27;;;;;;;23.40;12.63;;;6.20;96.40;;;;;;4135472;28;20418;-64
2022/12/20 09:55:41;;;;;;;25.17;13.20;;;5.90;97.10;;;;;;4145885;28;20461;-67
2022/12/20 09:58:09;;;;;;;22.50;14.30;;;5.90;97.00;;;;;;4114813;28;20454;-67
2022/12/20 10:00:15;;;;;;;26.27;16.27;;;5.90;97.50;;;;;;4107282;28;20430;-67
2022/12/20 10:02:22;;;;;;;18.17;11.60;;;5.90;97.30;;;;;;4139365;28;20442;-63
2022/12/20 10:04:28;;;;;;;20.07;12.00;;;5.70;98.00;;;;;;4117966;28;20469;-68
2022/12/20 10:07:09;;;;;;;15.27;9.13;;;5.80;98.30;;;;;;4127865;28;20430;-65
2022/12/20 10:09:30;;;;;;;9.30;5.67;;;6.10;97.80;;;;;;4131886;28;20436;-66
2022/12/20 10:12:07;;;;;;;10.37;6.40;;;6.20;97.70;;;;;;4125414;28;20529;-66
2022/12/20 10:14:49;;;;;;;8.03;5.43;;;6.20;97.70;;;;;;4125409;28;20435;-66
2022/12/20 10:17:10;;;;;;;8.43;5.60;;;6.00;98.30;;;;;;4112803;28;20469;-68
2022/12/20 10:19:28;;;;;;;12.37;6.87;;;6.10;98.10;;;;;;4124863;28;20520;-66
2022/12/20 10:22:01;;;;;;;8.30;5.10;;;6.10;98.10;;;;;;4139452;28;20421;-65
2022/12/20 10:24:30;;;;;;;10.37;6.17;;;6.10;97.70;;;;;;4136214;28;20465;-66
2022/12/20 10:26:33;;;;;;;9.53;6.30;;;6.20;97.80;;;;;;4101722;28;20442;-66
2022/12/20 10:28:35;;;;;;;13.13;7.30;;;6.10;97.70;;;;;;4128451;28;20948;-66
2022/12/20 10:30:36;;;;;;;10.60;5.83;;;6.00;98.10;;;;;;4113236;28;20465;-66
2022/12/20 10:32:36;;;;;;;6.90;4.70;;;6.00;98.20;;;;;;4146449;28;20432;-67
2022/12/20 10:34:37;;;;;;;7.40;4.70;;;6.00;99.10;;;;;;4130204;28;20458;-65
2022/12/20 10:36:38;;;;;;;7.83;5.43;;;6.00;99.40;;;;;;4120029;28;21036;-66
2022/12/20 10:38:49;;;;;;;7.00;4.87;;;6.00;99.20;;;;;;4133589;28;20208;-67
2022/12/20 10:41:02;;;;;;;6.80;5.40;;;6.00;98.80;;;;;;4110948;28;20214;-67
2022/12/20 10:43:05;;;;;;;8.40;5.53;;;5.90;99.50;;;;;;4128799;28;20435;-68
2022/12/20 10:45:36;;;;;;;6.37;4.73;;;6.00;99.10;;;;;;4133782;28;20425;-66
2022/12/20 10:47:44;;;;;;;9.47;5.00;;;6.20;98.10;;;;;;4137521;28;20865;-66